sensor_id;sensor_type;location;lat;lon;timestamp;pressure;altitude;pressure_sealevel;temperature;humidity
48846;BME280;34665;51.886;5.436;2022-08-03T00:01:01;101385.66;;;24.75;100.00
48846;BME280;34665;51.886;5.436;2022-08-03T00:03:27;101383.47;;;24.62;100.00
48846;BME280;34665;51.886;5.436;2022-08-03T00:05:53;101384.50;;;24.87;100.00
48846;BME280;34665;51.886;5.436;2022-08-03T00:08:18;101372.50;;;24.77;100.00
48846;BME280;34665;51.886;5.436;2022-08-03T00:10:44;101375.50;;;24.86;100.00
48846;BME280;34665;51.886;5.436;2022-08-03T00:13:09;101374.34;;;24.98;100.00
48846;BME280;34665;51.886;5.436;2022-08-03T00:15:38;101374.59;;;25.01;100.00
48846;BME280;34665;51.886;5.436;2022-08-03T00:18:04;101367.03;;;24.83;100.00
48846;BME280;34665;51.886;5.436;2022-08-03T00:20:30;101372.53;;;24.62;100.00
48846;BME280;34665;51.886;5.436;2022-08-03T00:22:55;101373.03;;;24.74;100.00
48846;BME280;34665;51.886;5.436;2022-08-03T00:25:21;101369.28;;;24.55;100.00
48846;BME280;34665;51.886;5.436;2022-08-03T00:27:46;101365.69;;;24.54;100.00
48846;BME280;34665;51.886;5.436;2022-08-03T00:30:12;101369.78;;;24.72;100.00
48846;BME280;34665;51.886;5.436;2022-08-03T00:32:37;101370.94;;;24.35;100.00
48846;BME280;34665;51.886;5.436;2022-08-03T00:35:03;101363.28;;;24.47;100.00
48846;BME280;34665;51.886;5.436;2022-08-03T00:37:28;101367.94;;;24.37;100.00
48846;BME280;34665;51.886;5.436;2022-08-03T00:39:54;101370.06;;;24.55;100.00
48846;BME280;34665;51.886;5.436;2022-08-03T00:42:19;101357.22;;;24.56;100.00
48846;BME280;34665;51.886;5.436;2022-08-03T00:44:44;101360.00;;;24.51;100.00
48846;BME280;34665;51.886;5.436;2022-08-03T00:47:10;101360.50;;;24.58;100.00
48846;BME280;34665;51.886;5.436;2022-08-03T00:49:37;101363.81;;;24.55;100.00
48846;BME280;34665;51.886;5.436;2022-08-03T00:52:03;101352.34;;;24.42;100.00
48846;BME280;34665;51.886;5.436;2022-08-03T00:54:29;101362.22;;;24.33;100.00
48846;BME280;34665;51.886;5.436;2022-08-03T00:56:54;101366.31;;;24.36;100.00
48846;BME280;34665;51.886;5.436;2022-08-03T00:59:21;101357.53;;;24.44;100.00
48846;BME280;34665;51.886;5.436;2022-08-03T01:01:46;101357.25;;;24.51;100.00
48846;BME280;34665;51.886;5.436;2022-08-03T01:04:12;101353.44;;;24.46;100.00
48846;BME280;34665;51.886;5.436;2022-08-03T01:07:05;101349.63;;;24.47;100.00
48846;BME280;34665;51.886;5.436;2022-08-03T01:12:47;101351.25;;;24.43;100.00
48846;BME280;34665;51.886;5.436;2022-08-03T01:15:21;101343.06;;;24.48;100.00
48846;BME280;34665;51.886;5.436;2022-08-03T01:18:03;101351.84;;;24.19;100.00
48846;BME280;34665;51.886;5.436;2022-08-03T01:20:36;101351.31;;;24.23;100.00
48846;BME280;34665;51.886;5.436;2022-08-03T01:23:20;101340.63;;;24.26;100.00
48846;BME280;34665;51.886;5.436;2022-08-03T01:26:12;101351.03;;;24.14;100.00
48846;BME280;34665;51.886;5.436;2022-08-03T01:29:00;101352.41;;;24.06;100.00
48846;BME280;34665;51.886;5.436;2022-08-03T01:31:40;101353.75;;;23.83;100.00
48846;BME280;34665;51.886;5.436;2022-08-03T01:34:09;101348.59;;;24.02;100.00
48846;BME280;34665;51.886;5.436;2022-08-03T01:36:39;101345.56;;;24.19;100.00
48846;BME280;34665;51.886;5.436;2022-08-03T01:39:07;101347.50;;;24.03;100.00
48846;BME280;34665;51.886;5.436;2022-08-03T01:41:41;101350.19;;;23.98;100.00
48846;BME280;34665;51.886;5.436;2022-08-03T01:44:10;101335.38;;;24.51;100.00
48846;BME280;34665;51.886;5.436;2022-08-03T01:46:37;101343.63;;;23.94;100.00
48846;BME280;34665;51.886;5.436;2022-08-03T01:49:08;101344.19;;;23.90;100.00
48846;BME280;34665;51.886;5.436;2022-08-03T01:51:37;101349.13;;;24.09;100.00
48846;BME280;34665;51.886;5.436;2022-08-03T01:54:04;101335.44;;;23.99;100.00
48846;BME280;34665;51.886;5.436;2022-08-03T01:56:31;101337.66;;;23.76;100.00
48846;BME280;34665;51.886;5.436;2022-08-03T01:58:57;101339.00;;;23.89;100.00
48846;BME280;34665;51.886;5.436;2022-08-03T02:01:26;101336.28;;;23.89;100.00
48846;BME280;34665;51.886;5.436;2022-08-03T02:03:53;101337.91;;;23.74;100.00
48846;BME280;34665;51.886;5.436;2022-08-03T02:06:21;101340.91;;;23.73;100.00
48846;BME280;34665;51.886;5.436;2022-08-03T02:08:48;101337.59;;;23.45;100.00
48846;BME280;34665;51.886;5.436;2022-08-03T02:11:15;101337.38;;;23.67;100.00
48846;BME280;34665;51.886;5.436;2022-08-03T02:13:43;101335.47;;;23.78;100.00
48846;BME280;34665;51.886;5.436;2022-08-03T02:16:11;101326.72;;;23.66;100.00
48846;BME280;34665;51.886;5.436;2022-08-03T02:18:39;101324.78;;;23.82;100.00
48846;BME280;34665;51.886;5.436;2022-08-03T02:21:06;101327.81;;;23.85;100.00
48846;BME280;34665;51.886;5.436;2022-08-03T02:23:35;101329.97;;;23.68;100.00
48846;BME280;34665;51.886;5.436;2022-08-03T02:26:02;101335.16;;;23.64;100.00
48846;BME280;34665;51.886;5.436;2022-08-03T02:28:33;101331.06;;;23.72;100.00
48846;BME280;34665;51.886;5.436;2022-08-03T02:31:03;101338.72;;;23.59;100.00
48846;BME280;34665;51.886;5.436;2022-08-03T02:33:33;101333.78;;;23.51;100.00
48846;BME280;34665;51.886;5.436;2022-08-03T02:36:02;101333.81;;;23.56;100.00
48846;BME280;34665;51.886;5.436;2022-08-03T02:38:32;101328.91;;;23.63;100.00
48846;BME280;34665;51.886;5.436;2022-08-03T02:40:59;101333.81;;;23.56;100.00
48846;BME280;34665;51.886;5.436;2022-08-03T02:43:29;101331.63;;;23.58;100.00
48846;BME280;34665;51.886;5.436;2022-08-03T02:45:56;101335.41;;;23.47;100.00
48846;BME280;34665;51.886;5.436;2022-08-03T02:48:28;101338.16;;;23.52;100.00
48846;BME280;34665;51.886;5.436;2022-08-03T02:50:57;101336.81;;;23.55;100.00
48846;BME280;34665;51.886;5.436;2022-08-03T02:53:23;101328.31;;;23.51;100.00
48846;BME280;34665;51.886;5.436;2022-08-03T02:55:49;101328.28;;;23.25;100.00
48846;BME280;34665;51.886;5.436;2022-08-03T02:58:17;101317.88;;;23.22;100.00
48846;BME280;34665;51.886;5.436;2022-08-03T03:00:45;101319.75;;;23.01;100.00
48846;BME280;34665;51.886;5.436;2022-08-03T03:03:12;101320.06;;;23.20;100.00
48846;BME280;34665;51.886;5.436;2022-08-03T03:05:39;101317.34;;;23.20;100.00
48846;BME280;34665;51.886;5.436;2022-08-03T03:08:07;101306.75;;;23.39;100.00
48846;BME280;34665;51.886;5.436;2022-08-03T03:10:33;101314.00;;;23.02;100.00
48846;BME280;34665;51.886;5.436;2022-08-03T03:12:59;101309.88;;;22.95;100.00
48846;BME280;34665;51.886;5.436;2022-08-03T03:15:27;101299.88;;;23.11;100.00
48846;BME280;34665;51.886;5.436;2022-08-03T03:17:54;101311.56;;;23.06;100.00
48846;BME280;34665;51.886;5.436;2022-08-03T03:20:20;101305.28;;;23.00;100.00
48846;BME280;34665;51.886;5.436;2022-08-03T03:22:49;101299.56;;;23.02;100.00
48846;BME280;34665;51.886;5.436;2022-08-03T03:25:16;101307.50;;;23.14;100.00
48846;BME280;34665;51.886;5.436;2022-08-03T03:27:42;101315.41;;;23.10;100.00
48846;BME280;34665;51.886;5.436;2022-08-03T03:30:08;101307.50;;;23.09;100.00
48846;BME280;34665;51.886;5.436;2022-08-03T03:32:34;101301.13;;;22.82;100.00
48846;BME280;34665;51.886;5.436;2022-08-03T03:35:03;101309.22;;;23.41;100.00
48846;BME280;34665;51.886;5.436;2022-08-03T03:37:29;101312.69;;;23.15;100.00
48846;BME280;34665;51.886;5.436;2022-08-03T03:39:54;101316.03;;;23.33;100.00
48846;BME280;34665;51.886;5.436;2022-08-03T03:42:20;101306.19;;;23.27;100.00
48846;BME280;34665;51.886;5.436;2022-08-03T03:44:47;101310.41;;;22.86;100.00
48846;BME280;34665;51.886;5.436;2022-08-03T03:47:13;101316.41;;;22.83;100.00
48846;BME280;34665;51.886;5.436;2022-08-03T03:49:39;101313.69;;;22.88;100.00
48846;BME280;34665;51.886;5.436;2022-08-03T03:52:05;101310.72;;;22.95;100.00
48846;BME280;34665;51.886;5.436;2022-08-03T03:54:41;101312.66;;;23.05;100.00
48846;BME280;34665;51.886;5.436;2022-08-03T03:57:07;101301.38;;;22.70;100.00
48846;BME280;34665;51.886;5.436;2022-08-03T03:59:32;101310.94;;;22.73;100.00
48846;BME280;34665;51.886;5.436;2022-08-03T04:02:01;101305.72;;;22.66;100.00
48846;BME280;34665;51.886;5.436;2022-08-03T04:04:26;101314.22;;;22.85;100.00
48846;BME280;34665;51.886;5.436;2022-08-03T04:07:40;101316.97;;;22.90;100.00
48846;BME280;34665;51.886;5.436;2022-08-03T04:10:30;101307.75;;;22.97;100.00
48846;BME280;34665;51.886;5.436;2022-08-03T04:13:19;101311.25;;;22.87;100.00
48846;BME280;34665;51.886;5.436;2022-08-03T04:15:46;101310.72;;;23.00;100.00
48846;BME280;34665;51.886;5.436;2022-08-03T04:18:14;101307.44;;;22.98;100.00
48846;BME280;34665;51.886;5.436;2022-08-03T04:20:44;101306.25;;;22.63;100.00
48846;BME280;34665;51.886;5.436;2022-08-03T04:23:12;101314.00;;;22.92;100.00
48846;BME280;34665;51.886;5.436;2022-08-03T04:25:39;101310.97;;;22.94;100.00
48846;BME280;34665;51.886;5.436;2022-08-03T04:28:05;101314.59;;;23.20;100.00
48846;BME280;34665;51.886;5.436;2022-08-03T04:30:35;101313.56;;;23.26;100.00
48846;BME280;34665;51.886;5.436;2022-08-03T04:33:02;101313.44;;;22.85;100.00
48846;BME280;34665;51.886;5.436;2022-08-03T04:35:30;101317.16;;;22.68;100.00
48846;BME280;34665;51.886;5.436;2022-08-03T04:38:00;101318.91;;;23.00;100.00
48846;BME280;34665;51.886;5.436;2022-08-03T04:40:29;101322.72;;;22.94;100.00
48846;BME280;34665;51.886;5.436;2022-08-03T04:42:57;101317.47;;;22.77;100.00
48846;BME280;34665;51.886;5.436;2022-08-03T04:45:26;101316.97;;;22.85;100.00
48846;BME280;34665;51.886;5.436;2022-08-03T04:47:52;101321.41;;;23.12;100.00
48846;BME280;34665;51.886;5.436;2022-08-03T04:50:18;101327.16;;;23.11;100.00
48846;BME280;34665;51.886;5.436;2022-08-03T04:53:02;101325.22;;;23.06;100.00
48846;BME280;34665;51.886;5.436;2022-08-03T04:55:29;101329.63;;;23.23;100.00
48846;BME280;34665;51.886;5.436;2022-08-03T04:57:56;101329.94;;;23.31;100.00
48846;BME280;34665;51.886;5.436;2022-08-03T05:00:21;101332.56;;;23.05;100.00
48846;BME280;34665;51.886;5.436;2022-08-03T05:02:47;101334.19;;;23.01;100.00
48846;BME280;34665;51.886;5.436;2022-08-03T05:05:13;101339.63;;;22.91;100.00
48846;BME280;34665;51.886;5.436;2022-08-03T05:07:40;101341.56;;;22.96;100.00
48846;BME280;34665;51.886;5.436;2022-08-03T05:10:07;101342.66;;;23.00;100.00
48846;BME280;34665;51.886;5.436;2022-08-03T05:12:34;101343.47;;;23.00;100.00
48846;BME280;34665;51.886;5.436;2022-08-03T05:15:00;101345.59;;;22.88;100.00
48846;BME280;34665;51.886;5.436;2022-08-03T05:17:25;101341.16;;;22.71;100.00
48846;BME280;34665;51.886;5.436;2022-08-03T05:19:51;101335.75;;;22.82;100.00
48846;BME280;34665;51.886;5.436;2022-08-03T05:22:17;101347.81;;;22.96;100.00
48846;BME280;34665;51.886;5.436;2022-08-03T05:24:43;101349.44;;;22.97;100.00
48846;BME280;34665;51.886;5.436;2022-08-03T05:27:08;101347.16;;;23.42;100.00
48846;BME280;34665;51.886;5.436;2022-08-03T05:29:34;101347.88;;;23.22;100.00
48846;BME280;34665;51.886;5.436;2022-08-03T05:31:59;101348.41;;;23.09;100.00
48846;BME280;34665;51.886;5.436;2022-08-03T05:34:26;101352.34;;;23.39;100.00
48846;BME280;34665;51.886;5.436;2022-08-03T05:36:51;101353.97;;;23.45;100.00
48846;BME280;34665;51.886;5.436;2022-08-03T05:39:16;101354.84;;;23.71;100.00
48846;BME280;34665;51.886;5.436;2022-08-03T05:41:42;101345.81;;;23.55;100.00
48846;BME280;34665;51.886;5.436;2022-08-03T05:44:07;101362.41;;;23.33;100.00
48846;BME280;34665;51.886;5.436;2022-08-03T05:46:33;101353.03;;;23.13;100.00
48846;BME280;34665;51.886;5.436;2022-08-03T05:48:58;101356.88;;;23.17;100.00
48846;BME280;34665;51.886;5.436;2022-08-03T05:51:24;101364.28;;;23.27;100.00
48846;BME280;34665;51.886;5.436;2022-08-03T05:53:50;101366.78;;;23.29;100.00
48846;BME280;34665;51.886;5.436;2022-08-03T05:56:15;101366.53;;;23.46;100.00
48846;BME280;34665;51.886;5.436;2022-08-03T05:58:42;101351.53;;;23.64;100.00
48846;BME280;34665;51.886;5.436;2022-08-03T06:01:07;101357.28;;;23.57;100.00
48846;BME280;34665;51.886;5.436;2022-08-03T06:03:33;101353.47;;;23.63;100.00
48846;BME280;34665;51.886;5.436;2022-08-03T06:05:58;101360.00;;;23.73;100.00
48846;BME280;34665;51.886;5.436;2022-08-03T06:08:24;101355.13;;;23.80;100.00
48846;BME280;34665;51.886;5.436;2022-08-03T06:10:49;101357.81;;;23.70;100.00
48846;BME280;34665;51.886;5.436;2022-08-03T06:13:15;101358.09;;;23.58;100.00
48846;BME280;34665;51.886;5.436;2022-08-03T06:15:41;101362.19;;;23.55;100.00
48846;BME280;34665;51.886;5.436;2022-08-03T06:18:07;101364.38;;;23.63;100.00
48846;BME280;34665;51.886;5.436;2022-08-03T06:20:32;101375.25;;;23.38;100.00
48846;BME280;34665;51.886;5.436;2022-08-03T06:22:58;101361.41;;;23.65;100.00
48846;BME280;34665;51.886;5.436;2022-08-03T06:25:25;101371.78;;;23.73;100.00
48846;BME280;34665;51.886;5.436;2022-08-03T06:27:50;101363.88;;;23.77;100.00
48846;BME280;34665;51.886;5.436;2022-08-03T06:30:16;101362.47;;;23.74;100.00
48846;BME280;34665;51.886;5.436;2022-08-03T06:32:43;101364.63;;;23.62;100.00
48846;BME280;34665;51.886;5.436;2022-08-03T06:35:09;101367.91;;;23.64;100.00
48846;BME280;34665;51.886;5.436;2022-08-03T06:37:43;101360.28;;;23.76;100.00
48846;BME280;34665;51.886;5.436;2022-08-03T06:40:18;101370.13;;;23.67;100.00
48846;BME280;34665;51.886;5.436;2022-08-03T06:42:45;101371.47;;;23.75;100.00
48846;BME280;34665;51.886;5.436;2022-08-03T06:45:11;101376.13;;;23.74;100.00
48846;BME280;34665;51.886;5.436;2022-08-03T06:47:37;101371.47;;;23.75;100.00
48846;BME280;34665;51.886;5.436;2022-08-03T06:50:06;101379.44;;;23.92;100.00
48846;BME280;34665;51.886;5.436;2022-08-03T06:52:34;101378.34;;;24.09;100.00
48846;BME280;34665;51.886;5.436;2022-08-03T06:55:00;101383.78;;;23.98;100.00
48846;BME280;34665;51.886;5.436;2022-08-03T06:57:25;101381.28;;;23.45;100.00
48846;BME280;34665;51.886;5.436;2022-08-03T06:59:51;101385.75;;;24.08;100.00
48846;BME280;34665;51.886;5.436;2022-08-03T07:02:16;101380.25;;;24.13;100.00
48846;BME280;34665;51.886;5.436;2022-08-03T07:04:46;101392.03;;;24.14;100.00
48846;BME280;34665;51.886;5.436;2022-08-03T07:07:12;101384.63;;;24.19;100.00
48846;BME280;34665;51.886;5.436;2022-08-03T07:09:38;101392.78;;;24.40;100.00
48846;BME280;34665;51.886;5.436;2022-08-03T07:12:04;101384.84;;;24.54;100.00
48846;BME280;34665;51.886;5.436;2022-08-03T07:14:31;101392.84;;;24.25;100.00
48846;BME280;34665;51.886;5.436;2022-08-03T07:16:56;101384.63;;;24.09;100.00
48846;BME280;34665;51.886;5.436;2022-08-03T07:19:22;101387.38;;;24.14;100.00
48846;BME280;34665;51.886;5.436;2022-08-03T07:21:47;101393.34;;;24.37;100.00
48846;BME280;34665;51.886;5.436;2022-08-03T07:24:12;101394.44;;;24.36;100.00
48846;BME280;34665;51.886;5.436;2022-08-03T07:26:38;101397.75;;;24.23;100.00
48846;BME280;34665;51.886;5.436;2022-08-03T07:29:04;101397.72;;;24.43;100.00
48846;BME280;34665;51.886;5.436;2022-08-03T07:31:29;101394.44;;;24.36;100.00
48846;BME280;34665;51.886;5.436;2022-08-03T07:33:55;101397.63;;;24.85;100.00
48846;BME280;34665;51.886;5.436;2022-08-03T07:36:21;101405.06;;;24.53;100.00
48846;BME280;34665;51.886;5.436;2022-08-03T07:38:46;101397.94;;;24.83;100.00
48846;BME280;34665;51.886;5.436;2022-08-03T07:41:12;101395.13;;;24.99;100.00
48846;BME280;34665;51.886;5.436;2022-08-03T07:43:38;101404.69;;;25.01;100.00
48846;BME280;34665;51.886;5.436;2022-08-03T07:46:03;101400.00;;;25.12;100.00
48846;BME280;34665;51.886;5.436;2022-08-03T07:48:29;101403.22;;;25.30;100.00
48846;BME280;34665;51.886;5.436;2022-08-03T07:50:54;101396.56;;;24.65;100.00
48846;BME280;34665;51.886;5.436;2022-08-03T07:53:20;101393.03;;;25.35;100.00
48846;BME280;34665;51.886;5.436;2022-08-03T07:55:45;101396.28;;;25.48;100.00
48846;BME280;34665;51.886;5.436;2022-08-03T07:58:11;101391.84;;;25.57;100.00
48846;BME280;34665;51.886;5.436;2022-08-03T08:00:40;101388.88;;;25.48;100.00
48846;BME280;34665;51.886;5.436;2022-08-03T08:03:07;101392.88;;;25.67;100.00
48846;BME280;34665;51.886;5.436;2022-08-03T08:05:33;101393.69;;;25.67;100.00
48846;BME280;34665;51.886;5.436;2022-08-03T08:07:59;101397.22;;;25.73;100.00
48846;BME280;34665;51.886;5.436;2022-08-03T08:10:26;101392.84;;;26.06;100.00
48846;BME280;34665;51.886;5.436;2022-08-03T08:12:52;101397.66;;;26.25;100.00
48846;BME280;34665;51.886;5.436;2022-08-03T08:15:18;101406.59;;;26.01;100.00
48846;BME280;34665;51.886;5.436;2022-08-03T08:17:48;101405.91;;;25.80;100.00
48846;BME280;34665;51.886;5.436;2022-08-03T08:20:23;101400.34;;;25.96;100.00
48846;BME280;34665;51.886;5.436;2022-08-03T08:22:48;101395.97;;;25.95;100.00
48846;BME280;34665;51.886;5.436;2022-08-03T08:25:14;101388.84;;;26.28;100.00
48846;BME280;34665;51.886;5.436;2022-08-03T08:27:43;101392.63;;;26.32;100.00
48846;BME280;34665;51.886;5.436;2022-08-03T08:30:09;101396.41;;;26.42;100.00
48846;BME280;34665;51.886;5.436;2022-08-03T08:32:36;101396.75;;;26.59;100.00
48846;BME280;34665;51.886;5.436;2022-08-03T08:35:02;101402.88;;;26.51;100.00
48846;BME280;34665;51.886;5.436;2022-08-03T08:37:28;101393.19;;;26.59;100.00
48846;BME280;34665;51.886;5.436;2022-08-03T08:39:54;101393.66;;;26.66;100.00
48846;BME280;34665;51.886;5.436;2022-08-03T08:42:20;101395.66;;;26.85;100.00
48846;BME280;34665;51.886;5.436;2022-08-03T08:44:45;101396.31;;;26.76;100.00
48846;BME280;34665;51.886;5.436;2022-08-03T08:47:11;101403.97;;;26.74;100.00
48846;BME280;34665;51.886;5.436;2022-08-03T08:49:39;101400.84;;;27.11;100.00
48846;BME280;34665;51.886;5.436;2022-08-03T08:52:07;101404.25;;;27.41;100.00
48846;BME280;34665;51.886;5.436;2022-08-03T08:54:33;101408.88;;;27.26;100.00
48846;BME280;34665;51.886;5.436;2022-08-03T08:57:02;101409.31;;;27.33;100.00
48846;BME280;34665;51.886;5.436;2022-08-03T08:59:31;101404.16;;;27.51;100.00
48846;BME280;34665;51.886;5.436;2022-08-03T09:01:58;101407.44;;;27.29;100.00
48846;BME280;34665;51.886;5.436;2022-08-03T09:04:23;101410.34;;;27.38;100.00
48846;BME280;34665;51.886;5.436;2022-08-03T09:06:49;101413.25;;;27.46;100.00
48846;BME280;34665;51.886;5.436;2022-08-03T09:09:15;101403.41;;;27.65;100.00
48846;BME280;34665;51.886;5.436;2022-08-03T09:11:41;101403.41;;;27.65;100.00
48846;BME280;34665;51.886;5.436;2022-08-03T09:14:08;101410.69;;;28.08;100.00
48846;BME280;34665;51.886;5.436;2022-08-03T09:16:33;101406.50;;;28.29;100.00
48846;BME280;34665;51.886;5.436;2022-08-03T09:19:10;101404.69;;;28.39;100.00
48846;BME280;34665;51.886;5.436;2022-08-03T09:21:36;101406.81;;;28.56;100.00
48846;BME280;34665;51.886;5.436;2022-08-03T09:24:04;101408.97;;;28.59;100.00
48846;BME280;34665;51.886;5.436;2022-08-03T09:26:35;101409.78;;;28.73;100.00
48846;BME280;34665;51.886;5.436;2022-08-03T09:29:09;101409.03;;;28.87;100.00
48846;BME280;34665;51.886;5.436;2022-08-03T09:31:39;101415.22;;;29.07;100.00
48846;BME280;34665;51.886;5.436;2022-08-03T09:34:07;101411.94;;;29.04;100.00
48846;BME280;34665;51.886;5.436;2022-08-03T09:39:05;101403.97;;;30.13;100.00
48846;BME280;34665;51.886;5.436;2022-08-03T09:41:32;101431.09;;;30.20;100.00
48846;BME280;34665;51.886;5.436;2022-08-03T09:43:58;101418.53;;;30.68;100.00
48846;BME280;34665;51.886;5.436;2022-08-03T09:46:23;101412.38;;;31.47;100.00
48846;BME280;34665;51.886;5.436;2022-08-03T09:48:48;101408.44;;;31.92;100.00
48846;BME280;34665;51.886;5.436;2022-08-03T09:51:14;101412.38;;;32.47;100.00
48846;BME280;34665;51.886;5.436;2022-08-03T09:53:43;101422.97;;;33.14;100.00
48846;BME280;34665;51.886;5.436;2022-08-03T09:56:08;101422.13;;;32.93;100.00
48846;BME280;34665;51.886;5.436;2022-08-03T09:58:43;101425.13;;;33.30;100.00
48846;BME280;34665;51.886;5.436;2022-08-03T10:01:09;101426.25;;;33.59;100.00
48846;BME280;34665;51.886;5.436;2022-08-03T10:03:37;101441.75;;;33.72;100.00
48846;BME280;34665;51.886;5.436;2022-08-03T10:06:22;101433.25;;;33.35;100.00
48846;BME280;34665;51.886;5.436;2022-08-03T10:09:10;101436.69;;;33.74;100.00
48846;BME280;34665;51.886;5.436;2022-08-03T10:11:37;101439.09;;;35.30;94.62
48846;BME280;34665;51.886;5.436;2022-08-03T10:14:04;101444.34;;;35.07;91.07
48846;BME280;34665;51.886;5.436;2022-08-03T10:16:34;101437.56;;;34.34;88.93
48846;BME280;34665;51.886;5.436;2022-08-03T10:19:00;101431.91;;;34.17;90.29
48846;BME280;34665;51.886;5.436;2022-08-03T10:21:31;101438.00;;;35.07;85.57
48846;BME280;34665;51.886;5.436;2022-08-03T10:24:01;101425.72;;;35.08;84.77
48846;BME280;34665;51.886;5.436;2022-08-03T10:26:30;101426.81;;;36.17;78.24
48846;BME280;34665;51.886;5.436;2022-08-03T10:28:58;101430.03;;;35.74;79.80
48846;BME280;34665;51.886;5.436;2022-08-03T10:31:33;101425.38;;;36.23;77.63
48846;BME280;34665;51.886;5.436;2022-08-03T10:34:01;101433.72;;;35.38;78.16
48846;BME280;34665;51.886;5.436;2022-08-03T10:36:30;101426.53;;;36.38;71.85
48846;BME280;34665;51.886;5.436;2022-08-03T10:38:56;101422.19;;;37.05;63.93
48846;BME280;34665;51.886;5.436;2022-08-03T10:41:25;101422.72;;;35.70;70.06
48846;BME280;34665;51.886;5.436;2022-08-03T10:44:00;101420.72;;;36.95;65.25
48846;BME280;34665;51.886;5.436;2022-08-03T10:46:27;101428.22;;;36.91;62.33
48846;BME280;34665;51.886;5.436;2022-08-03T10:48:53;101415.88;;;37.08;63.37
48846;BME280;34665;51.886;5.436;2022-08-03T10:51:21;101411.25;;;36.80;64.25
48846;BME280;34665;51.886;5.436;2022-08-03T10:53:47;101408.91;;;37.18;63.17
48846;BME280;34665;51.886;5.436;2022-08-03T11:02:10;101420.00;;;37.34;60.89
48846;BME280;34665;51.886;5.436;2022-08-03T11:04:39;101402.03;;;37.51;59.24
48846;BME280;34665;51.886;5.436;2022-08-03T11:07:23;101398.44;;;37.51;56.73
48846;BME280;34665;51.886;5.436;2022-08-03T11:09:53;101409.34;;;37.20;54.96
48846;BME280;34665;51.886;5.436;2022-08-03T11:12:24;101413.16;;;37.71;51.65
48846;BME280;34665;51.886;5.436;2022-08-03T11:14:52;101412.47;;;37.97;53.23
48846;BME280;34665;51.886;5.436;2022-08-03T11:17:18;101412.34;;;37.70;51.66
48846;BME280;34665;51.886;5.436;2022-08-03T11:19:48;101415.78;;;38.80;48.94
48846;BME280;34665;51.886;5.436;2022-08-03T11:22:14;101414.03;;;38.68;48.76
48846;BME280;34665;51.886;5.436;2022-08-03T11:27:23;101411.78;;;38.78;48.22
48846;BME280;34665;51.886;5.436;2022-08-03T11:30:05;101411.53;;;39.17;47.76
48846;BME280;34665;51.886;5.436;2022-08-03T11:40:41;101411.16;;;39.91;45.78
48846;BME280;34665;51.886;5.436;2022-08-03T11:48:21;101394.91;;;39.66;43.82
48846;BME280;34665;51.886;5.436;2022-08-03T11:50:47;101415.72;;;41.18;41.01
48846;BME280;34665;51.886;5.436;2022-08-03T11:53:14;101403.47;;;40.78;39.46
48846;BME280;34665;51.886;5.436;2022-08-03T11:55:41;101396.59;;;39.74;41.65
48846;BME280;34665;51.886;5.436;2022-08-03T11:58:15;101400.47;;;40.00;41.50
48846;BME280;34665;51.886;5.436;2022-08-03T12:00:41;101403.06;;;41.64;38.95
48846;BME280;34665;51.886;5.436;2022-08-03T12:03:08;101405.38;;;41.44;38.36
48846;BME280;34665;51.886;5.436;2022-08-03T12:08:14;101415.78;;;41.40;38.24
48846;BME280;34665;51.886;5.436;2022-08-03T12:10:49;101414.00;;;41.03;39.45
48846;BME280;34665;51.886;5.436;2022-08-03T12:13:16;101412.53;;;41.23;39.19
48846;BME280;34665;51.886;5.436;2022-08-03T12:15:42;101413.78;;;41.44;37.75
48846;BME280;34665;51.886;5.436;2022-08-03T12:18:16;101409.25;;;41.14;39.37
48846;BME280;34665;51.886;5.436;2022-08-03T12:20:45;101400.66;;;40.78;41.61
48846;BME280;34665;51.886;5.436;2022-08-03T12:23:12;101402.16;;;41.35;39.63
48846;BME280;34665;51.886;5.436;2022-08-03T12:25:39;101409.88;;;42.39;38.76
48846;BME280;34665;51.886;5.436;2022-08-03T12:28:13;101402.25;;;42.33;39.88
48846;BME280;34665;51.886;5.436;2022-08-03T12:30:44;101408.31;;;42.27;38.40
48846;BME280;34665;51.886;5.436;2022-08-03T12:35:39;101399.16;;;43.41;37.84
48846;BME280;34665;51.886;5.436;2022-08-03T12:38:05;101406.81;;;43.41;37.53
48846;BME280;34665;51.886;5.436;2022-08-03T12:40:30;101410.78;;;43.51;36.88
48846;BME280;34665;51.886;5.436;2022-08-03T12:42:56;101415.66;;;43.43;37.68
48846;BME280;34665;51.886;5.436;2022-08-03T12:45:28;101408.34;;;43.49;37.30
48846;BME280;34665;51.886;5.436;2022-08-03T12:47:58;101398.25;;;41.79;41.45
48846;BME280;34665;51.886;5.436;2022-08-03T12:50:32;101408.72;;;42.22;40.11
48846;BME280;34665;51.886;5.436;2022-08-03T12:53:04;101407.09;;;42.28;39.88
48846;BME280;34665;51.886;5.436;2022-08-03T12:55:31;101409.13;;;42.24;40.23
48846;BME280;34665;51.886;5.436;2022-08-03T12:58:00;101409.16;;;40.92;43.33
48846;BME280;34665;51.886;5.436;2022-08-03T13:00:26;101407.13;;;42.10;41.39
48846;BME280;34665;51.886;5.436;2022-08-03T13:05:24;101390.34;;;40.96;45.32
48846;BME280;34665;51.886;5.436;2022-08-03T13:07:50;101416.34;;;40.90;44.26
48846;BME280;34665;51.886;5.436;2022-08-03T13:10:29;101403.75;;;41.36;45.33
48846;BME280;34665;51.886;5.436;2022-08-03T13:12:55;101409.47;;;41.76;44.46
48846;BME280;34665;51.886;5.436;2022-08-03T13:15:23;101396.59;;;41.60;44.91
48846;BME280;34665;51.886;5.436;2022-08-03T13:17:51;101392.66;;;42.16;44.51
48846;BME280;34665;51.886;5.436;2022-08-03T13:20:17;101412.28;;;42.59;42.06
48846;BME280;34665;51.886;5.436;2022-08-03T13:22:46;101398.31;;;42.12;43.06